createdAt,value
2022-12-19T00:00:56.262Z,0
2022-12-19T00:01:57.455Z,0
2022-12-19T00:03:01.017Z,0
2022-12-19T00:03:58.335Z,0
2022-12-19T00:04:58.560Z,0
2022-12-19T00:05:59.484Z,0
2022-12-19T00:07:00.337Z,0
2022-12-19T00:08:01.765Z,0
2022-12-19T00:09:01.001Z,0
2022-12-19T00:10:00.616Z,0
2022-12-19T00:11:04.412Z,0
2022-12-19T00:12:02.414Z,0
2022-12-19T00:13:03.508Z,0
2022-12-19T00:14:03.693Z,0
2022-12-19T00:15:06.398Z,0
2022-12-19T00:16:04.846Z,0
2022-12-19T00:17:06.393Z,0
2022-12-19T00:18:05.319Z,0
2022-12-19T00:19:06.911Z,0
2022-12-19T00:20:05.519Z,0
2022-12-19T00:21:05.850Z,0
2022-12-19T00:22:10.969Z,0
2022-12-19T00:23:07.929Z,0
2022-12-19T00:24:08.151Z,0
2022-12-19T00:25:09.790Z,0
2022-12-19T00:26:12.461Z,0
2022-12-19T00:27:12.791Z,0
2022-12-19T00:28:10.710Z,0
2022-12-19T00:29:19.518Z,0
2022-12-19T00:30:12.709Z,0
2022-12-19T00:31:13.541Z,0
2022-12-19T00:32:13.719Z,0
2022-12-19T00:33:13.915Z,0
2022-12-19T00:34:14.924Z,0
2022-12-19T00:35:17.937Z,0
2022-12-19T00:36:17.068Z,0
2022-12-19T00:37:18.135Z,0
2022-12-19T00:38:18.027Z,0
2022-12-19T00:39:24.568Z,0
2022-12-19T00:40:19.472Z,0
2022-12-19T00:41:20.099Z,0
2022-12-19T00:42:21.395Z,0
2022-12-19T00:43:21.261Z,0
2022-12-19T00:44:23.378Z,0
2022-12-19T00:45:22.560Z,0
2022-12-19T00:46:23.334Z,0
2022-12-19T00:47:23.231Z,0
2022-12-19T00:48:29.489Z,0
2022-12-19T00:49:23.492Z,0
2022-12-19T00:50:24.106Z,0
2022-12-19T00:51:25.590Z,0
2022-12-19T00:52:26.707Z,0
2022-12-19T00:53:26.084Z,0
2022-12-19T00:54:27.033Z,0
2022-12-19T00:55:34.922Z,0
2022-12-19T00:56:26.274Z,0
2022-12-19T00:57:26.971Z,0
2022-12-19T00:58:28.180Z,0
2022-12-19T00:59:37.818Z,0
2022-12-19T01:00:29.023Z,0
2022-12-19T01:01:30.310Z,0
2022-12-19T01:02:31.597Z,0
2022-12-19T01:03:31.362Z,0
2022-12-19T01:04:53.290Z,0
2022-12-19T01:05:33.068Z,0
2022-12-19T01:06:34.592Z,0
2022-12-19T01:07:33.816Z,0
2022-12-19T01:08:37.747Z,0
2022-12-19T01:09:35.653Z,0
2022-12-19T01:10:36.855Z,0
2022-12-19T01:11:36.467Z,0
2022-12-19T01:12:41.512Z,0
2022-12-19T01:13:38.734Z,0
2022-12-19T01:14:40.222Z,0
2022-12-19T01:15:39.407Z,0
2022-12-19T01:16:41.086Z,0
2022-12-19T01:17:48.883Z,0
2022-12-19T01:18:42.369Z,0
2022-12-19T01:19:48.765Z,0
2022-12-19T01:20:46.003Z,0
2022-12-19T01:21:42.610Z,0
2022-12-19T01:22:42.869Z,0
2022-12-19T01:23:43.675Z,0
2022-12-19T01:24:44.861Z,0
2022-12-19T01:25:51.398Z,0
2022-12-19T01:26:46.613Z,0
2022-12-19T01:27:46.900Z,0
2022-12-19T01:28:47.095Z,0
2022-12-19T01:30:03.855Z,0
2022-12-19T01:30:51.338Z,0
2022-12-19T01:31:48.678Z,0
2022-12-19T01:32:50.988Z,0
2022-12-19T01:33:54.913Z,0
2022-12-19T01:34:49.811Z,0
2022-12-19T01:35:50.546Z,0
2022-12-19T01:36:55.766Z,0
2022-12-19T01:37:52.101Z,0
2022-12-19T01:38:53.558Z,0
2022-12-19T01:39:57.256Z,0
2022-12-19T01:40:53.585Z,0
2022-12-19T01:41:54.617Z,0
2022-12-19T01:42:56.207Z,0
2022-12-19T01:43:57.078Z,0
2022-12-19T01:44:56.307Z,0
2022-12-19T01:46:02.127Z,0
2022-12-19T01:46:57.168Z,0
2022-12-19T01:48:04.501Z,0
2022-12-19T01:48:57.681Z,0
2022-12-19T01:49:58.293Z,0
2022-12-19T01:51:17.771Z,0
2022-12-19T01:52:00.252Z,0
2022-12-19T01:52:59.864Z,0
2022-12-19T01:54:04.937Z,0
2022-12-19T01:55:03.819Z,0
2022-12-19T01:56:00.705Z,0
2022-12-19T01:57:01.883Z,0
2022-12-19T01:58:02.215Z,0
2022-12-19T01:59:17.988Z,0
2022-12-19T02:00:02.998Z,0
2022-12-19T02:01:02.810Z,0
2022-12-19T02:02:09.005Z,0
2022-12-19T02:03:04.655Z,0
2022-12-19T02:04:04.016Z,0
2022-12-19T02:05:04.914Z,0
2022-12-19T02:06:06.427Z,0
2022-12-19T02:07:21.268Z,0
2022-12-19T02:08:07.769Z,0
2022-12-19T02:09:08.260Z,0
2022-12-19T02:10:13.382Z,0
2022-12-19T02:11:08.604Z,0
2022-12-19T02:12:08.829Z,0
2022-12-19T02:13:08.845Z,0
2022-12-19T02:14:09.688Z,0
2022-12-19T02:15:14.698Z,0
2022-12-19T02:16:10.951Z,0
2022-12-19T02:17:11.171Z,0
2022-12-19T02:18:11.200Z,0
2022-12-19T02:19:14.450Z,0
2022-12-19T02:20:12.656Z,0
2022-12-19T02:21:12.845Z,0
2022-12-19T02:22:17.508Z,0
2022-12-19T02:23:15.326Z,0
2022-12-19T02:24:13.860Z,0
2022-12-19T02:25:15.151Z,0
2022-12-19T02:26:16.071Z,0
2022-12-19T02:27:16.141Z,0
2022-12-19T02:28:17.935Z,0
2022-12-19T02:29:18.291Z,0
2022-12-19T02:30:18.417Z,0
2022-12-19T02:31:28.691Z,0
2022-12-19T02:32:19.539Z,0
2022-12-19T02:33:19.868Z,0
2022-12-19T02:34:20.994Z,0
2022-12-19T02:35:25.039Z,0
2022-12-19T02:36:21.664Z,0
2022-12-19T02:37:26.615Z,0
2022-12-19T02:38:27.043Z,0
2022-12-19T02:39:23.959Z,0
2022-12-19T02:40:24.590Z,0
2022-12-19T02:41:24.779Z,0
2022-12-19T02:42:31.952Z,0
2022-12-19T02:43:25.171Z,0
2022-12-19T02:44:25.805Z,0
2022-12-19T02:45:39.534Z,0
2022-12-19T02:46:27.728Z,0
2022-12-19T02:47:28.496Z,0
2022-12-19T02:48:36.075Z,0
2022-12-19T02:49:41.918Z,0
2022-12-19T02:50:30.815Z,0
2022-12-19T02:51:32.016Z,0
2022-12-19T02:52:32.097Z,0
2022-12-19T02:53:35.118Z,0
2022-12-19T02:54:33.239Z,0
2022-12-19T02:55:34.539Z,0
2022-12-19T02:56:34.767Z,0
2022-12-19T02:57:38.858Z,0
2022-12-19T02:58:35.180Z,0
2022-12-19T02:59:35.530Z,0
2022-12-19T03:00:36.445Z,0
2022-12-19T03:01:38.920Z,0
2022-12-19T03:02:39.147Z,0
2022-12-19T03:03:39.174Z,0
2022-12-19T03:04:39.785Z,0
2022-12-19T03:05:40.126Z,0
2022-12-19T03:06:40.377Z,0
2022-12-19T03:07:40.859Z,0
2022-12-19T03:08:40.830Z,0
2022-12-19T03:09:42.453Z,0
2022-12-19T03:10:42.674Z,0
2022-12-19T03:11:43.155Z,0
2022-12-19T03:12:43.086Z,0
2022-12-19T03:13:44.157Z,0
2022-12-19T03:14:45.285Z,0
2022-12-19T03:15:45.099Z,0
2022-12-19T03:16:46.289Z,0
2022-12-19T03:17:46.322Z,0
2022-12-19T03:18:47.358Z,0
2022-12-19T03:19:47.279Z,0
2022-12-19T03:20:48.034Z,0
2022-12-19T03:21:49.264Z,0
2022-12-19T03:22:49.891Z,0
2022-12-19T03:23:50.391Z,0
2022-12-19T03:24:50.674Z,0
2022-12-19T03:25:51.760Z,0
2022-12-19T03:26:52.850Z,0
2022-12-19T03:27:52.910Z,0
2022-12-19T03:28:54.962Z,0
2022-12-19T03:29:54.870Z,0
2022-12-19T03:30:56.657Z,0
2022-12-19T03:31:56.336Z,0
2022-12-19T03:32:57.644Z,0
2022-12-19T03:33:58.265Z,0
2022-12-19T03:34:59.362Z,0
2022-12-19T03:35:59.548Z,0
2022-12-19T03:37:00.855Z,0
2022-12-19T03:38:01.167Z,0
2022-12-19T03:39:02.401Z,0
2022-12-19T03:40:02.557Z,0
2022-12-19T03:41:02.702Z,0
2022-12-19T03:42:04.009Z,0
2022-12-19T03:43:04.561Z,0
2022-12-19T03:44:05.643Z,0
2022-12-19T03:45:05.486Z,0
2022-12-19T03:46:07.226Z,0
2022-12-19T03:47:07.155Z,0
2022-12-19T03:48:08.722Z,0
2022-12-19T03:49:09.346Z,0
2022-12-19T03:50:09.993Z,0
2022-12-19T03:51:10.321Z,0
2022-12-19T03:52:16.191Z,0
2022-12-19T03:53:11.555Z,0
2022-12-19T03:54:11.245Z,0
2022-12-19T03:55:12.760Z,0
2022-12-19T03:56:12.399Z,0
2022-12-19T03:57:13.899Z,0
2022-12-19T03:58:15.318Z,0
2022-12-19T03:59:14.358Z,0
2022-12-19T04:00:15.569Z,0
2022-12-19T04:01:16.056Z,0
2022-12-19T04:02:16.708Z,0
2022-12-19T04:03:17.732Z,0
2022-12-19T04:04:18.105Z,0
2022-12-19T04:05:18.226Z,0
2022-12-19T04:06:18.462Z,0
2022-12-19T04:07:18.943Z,0
2022-12-19T04:08:19.559Z,0
2022-12-19T04:09:26.174Z,0
2022-12-19T04:10:19.524Z,0
2022-12-19T04:11:20.812Z,0
2022-12-19T04:12:21.020Z,0
2022-12-19T04:13:21.512Z,0
2022-12-19T04:14:22.021Z,0
2022-12-19T04:15:21.967Z,0
2022-12-19T04:16:23.744Z,0
2022-12-19T04:17:23.675Z,0
2022-12-19T04:18:24.467Z,0
2022-12-19T04:19:24.506Z,0
2022-12-19T04:20:25.223Z,0
2022-12-19T04:21:25.878Z,0
2022-12-19T04:22:26.072Z,0
2022-12-19T04:23:27.169Z,0
2022-12-19T04:24:27.389Z,0
2022-12-19T04:25:33.215Z,0
2022-12-19T04:26:27.548Z,0
2022-12-19T04:27:29.071Z,0
2022-12-19T04:28:28.985Z,0
2022-12-19T04:29:30.590Z,0
2022-12-19T04:30:30.798Z,0
2022-12-19T04:31:31.783Z,0
2022-12-19T04:32:31.753Z,0
2022-12-19T04:33:31.756Z,0
2022-12-19T04:34:33.506Z,0
2022-12-19T04:35:33.335Z,0
2022-12-19T04:36:34.948Z,0
2022-12-19T04:37:35.131Z,0
2022-12-19T04:38:34.884Z,0
2022-12-19T04:39:36.952Z,0
2022-12-19T04:40:41.622Z,0
2022-12-19T04:41:38.035Z,0
2022-12-19T04:42:38.671Z,0
2022-12-19T04:43:39.889Z,0
2022-12-19T04:44:40.103Z,0
2022-12-19T04:45:41.905Z,0
2022-12-19T04:46:41.018Z,0
2022-12-19T04:47:40.978Z,0
2022-12-19T04:48:42.266Z,0
2022-12-19T04:49:42.581Z,0
2022-12-19T04:50:43.123Z,0
2022-12-19T04:51:43.159Z,0
2022-12-19T04:52:44.359Z,0
2022-12-19T04:53:45.401Z,0
2022-12-19T04:54:46.064Z,0
2022-12-19T04:55:45.911Z,0
2022-12-19T04:56:46.837Z,0
2022-12-19T04:57:47.071Z,0
2022-12-19T04:58:47.559Z,0
2022-12-19T04:59:47.607Z,0
2022-12-19T05:00:47.969Z,0
2022-12-19T05:01:49.207Z,0
2022-12-19T05:02:50.876Z,0
2022-12-19T05:04:01.372Z,0
2022-12-19T05:04:51.359Z,0
2022-12-19T05:05:51.374Z,0
2022-12-19T05:06:52.983Z,0
2022-12-19T05:07:53.461Z,0
2022-12-19T05:08:53.795Z,0
2022-12-19T05:09:53.988Z,0
2022-12-19T05:10:55.564Z,0
2022-12-19T05:11:55.519Z,0
2022-12-19T05:12:56.457Z,0
2022-12-19T05:13:56.371Z,0
2022-12-19T05:14:56.835Z,0
2022-12-19T05:15:58.886Z,0
2022-12-19T05:17:04.314Z,0
2022-12-19T05:17:58.514Z,0
2022-12-19T05:18:58.517Z,0
2022-12-19T05:19:59.279Z,0
2022-12-19T05:21:00.228Z,0
2022-12-19T05:22:00.570Z,0
2022-12-19T05:23:03.869Z,0
2022-12-19T05:24:02.611Z,0
2022-12-19T05:25:02.823Z,0
2022-12-19T05:26:02.693Z,0
2022-12-19T05:27:03.907Z,0
2022-12-19T05:28:04.100Z,0
2022-12-19T05:29:04.593Z,0
2022-12-19T05:30:04.916Z,0
2022-12-19T05:31:08.702Z,0
2022-12-19T05:32:05.701Z,0
2022-12-19T05:33:06.206Z,0
2022-12-19T05:34:06.517Z,0
2022-12-19T05:35:07.122Z,0
2022-12-19T05:36:07.764Z,0
2022-12-19T05:37:08.684Z,0
2022-12-19T05:38:08.885Z,0
2022-12-19T05:39:09.930Z,0
2022-12-19T05:40:09.890Z,0
2022-12-19T05:41:10.515Z,0
2022-12-19T05:42:17.489Z,0
2022-12-19T05:43:12.706Z,0
2022-12-19T05:44:12.416Z,0
2022-12-19T05:45:14.052Z,0
2022-12-19T05:46:14.890Z,0
2022-12-19T05:47:15.175Z,0
2022-12-19T05:48:20.615Z,0
2022-12-19T05:49:16.896Z,0
2022-12-19T05:50:16.226Z,0
2022-12-19T05:51:17.457Z,0
2022-12-19T05:52:18.150Z,0
2022-12-19T05:53:23.294Z,0
2022-12-19T05:54:18.941Z,0
2022-12-19T05:55:18.863Z,0
2022-12-19T05:56:20.801Z,0
2022-12-19T05:57:21.127Z,0
2022-12-19T05:58:21.493Z,0
2022-12-19T05:59:22.990Z,0
2022-12-19T06:00:23.007Z,0
2022-12-19T06:01:24.365Z,0
2022-12-19T06:02:24.959Z,0
2022-12-19T06:03:25.285Z,0
2022-12-19T06:04:25.664Z,0
2022-12-19T06:05:25.659Z,0
2022-12-19T06:06:25.849Z,0
2022-12-19T06:07:32.298Z,0
2022-12-19T06:08:27.920Z,0
2022-12-19T06:09:29.675Z,0
2022-12-19T06:10:29.167Z,0
2022-12-19T06:11:29.424Z,0
2022-12-19T06:12:29.332Z,0
2022-12-19T06:13:36.010Z,0
2022-12-19T06:14:30.916Z,0
2022-12-19T06:15:32.554Z,0
2022-12-19T06:16:33.825Z,0
2022-12-19T06:17:34.061Z,0
2022-12-19T06:18:33.706Z,0
2022-12-19T06:19:35.558Z,0
2022-12-19T06:20:35.627Z,0
2022-12-19T06:21:39.716Z,0
2022-12-19T06:22:37.293Z,0
2022-12-19T06:23:38.506Z,0
2022-12-19T06:24:38.266Z,0
2022-12-19T06:25:38.915Z,0
2022-12-19T06:26:39.558Z,0
2022-12-19T06:27:41.061Z,0
2022-12-19T06:28:40.965Z,0
2022-12-19T06:29:41.574Z,0
2022-12-19T06:30:42.900Z,0
2022-12-19T06:31:43.773Z,0
2022-12-19T06:32:48.917Z,0
2022-12-19T06:33:44.124Z,0
2022-12-19T06:35:19.724Z,0
2022-12-19T06:35:45.308Z,0
2022-12-19T06:37:50.515Z,0
2022-12-19T06:38:46.401Z,0
2022-12-19T06:39:48.061Z,0
2022-12-19T06:40:47.978Z,0
2022-12-19T06:41:49.536Z,0
2022-12-19T06:42:50.022Z,0
2022-12-19T06:43:53.775Z,0
2022-12-19T06:44:50.158Z,0
2022-12-19T06:45:51.251Z,0
2022-12-19T06:46:52.753Z,0
2022-12-19T06:47:52.111Z,0
2022-12-19T06:48:52.777Z,0
2022-12-19T06:49:53.571Z,0
2022-12-19T06:50:54.908Z,0
2022-12-19T06:51:56.285Z,0
2022-12-19T06:52:56.642Z,0
2022-12-19T06:53:56.576Z,0
2022-12-19T06:54:58.249Z,0
2022-12-19T06:55:57.879Z,0
2022-12-19T06:56:58.997Z,0
2022-12-19T06:57:58.900Z,0
2022-12-19T06:58:59.515Z,0
2022-12-19T06:59:59.715Z,0
2022-12-19T07:01:00.564Z,0
2022-12-19T07:02:01.652Z,0
2022-12-19T07:03:01.477Z,0
2022-12-19T07:04:01.443Z,0
2022-12-19T07:05:03.072Z,0
2022-12-19T07:06:03.392Z,5.63
2022-12-19T07:07:06.236Z,5.63
2022-12-19T07:08:04.560Z,5.63
2022-12-19T07:09:04.470Z,5.63
2022-12-19T07:10:05.267Z,5.63
2022-12-19T07:11:06.991Z,5.63
2022-12-19T07:12:07.249Z,5.63
2022-12-19T07:13:07.441Z,5.63
2022-12-19T07:14:07.343Z,5.63
2022-12-19T07:15:10.349Z,5.63
2022-12-19T07:16:08.947Z,11.25
2022-12-19T07:17:08.497Z,11.25
2022-12-19T07:18:09.715Z,11.25
2022-12-19T07:19:09.114Z,11.25
2022-12-19T07:20:10.536Z,11.25
2022-12-19T07:21:11.160Z,11.25
2022-12-19T07:22:11.403Z,11.25
2022-12-19T07:23:12.478Z,11.25
2022-12-19T07:24:13.841Z,11.25
2022-12-19T07:25:13.441Z,11.25
2022-12-19T07:26:13.388Z,11.25
2022-12-19T07:27:14.826Z,16.88
2022-12-19T07:28:15.327Z,16.88
2022-12-19T07:29:16.120Z,16.88
2022-12-19T07:30:16.346Z,16.88
2022-12-19T07:31:16.416Z,16.88
2022-12-19T07:32:17.427Z,16.88
2022-12-19T07:33:27.818Z,16.88
2022-12-19T07:34:18.902Z,16.88
2022-12-19T07:35:19.743Z,16.88
2022-12-19T07:36:21.117Z,22.5
2022-12-19T07:37:21.541Z,22.5
2022-12-19T07:38:22.692Z,22.5
2022-12-19T07:39:22.639Z,22.5
2022-12-19T07:40:23.979Z,22.5
2022-12-19T07:41:23.895Z,22.5
2022-12-19T07:42:28.146Z,22.5
2022-12-19T07:43:25.335Z,22.5
2022-12-19T07:44:26.717Z,22.5
2022-12-19T07:45:27.225Z,22.5
2022-12-19T07:46:27.876Z,22.5
2022-12-19T07:47:28.321Z,22.5
2022-12-19T07:48:28.575Z,22.5
2022-12-19T07:49:34.092Z,28.13
2022-12-19T07:50:29.809Z,28.13
2022-12-19T07:51:30.517Z,28.13
2022-12-19T07:52:30.337Z,28.13
2022-12-19T07:53:30.839Z,28.13
2022-12-19T07:54:32.036Z,28.13
2022-12-19T07:55:32.735Z,28.13
2022-12-19T07:56:33.959Z,28.13
2022-12-19T07:57:33.189Z,28.13
2022-12-19T07:58:34.439Z,28.13
2022-12-19T07:59:48.983Z,28.13
2022-12-19T08:00:35.128Z,28.13
2022-12-19T08:01:40.694Z,28.13
2022-12-19T08:02:38.153Z,28.13
2022-12-19T08:03:37.301Z,28.13
2022-12-19T08:04:37.947Z,28.13
2022-12-19T08:05:39.307Z,28.13
2022-12-19T08:06:46.259Z,28.13
2022-12-19T08:07:40.327Z,28.13
2022-12-19T08:08:41.018Z,28.13
2022-12-19T08:09:42.499Z,28.13
2022-12-19T08:10:42.844Z,28.13
2022-12-19T08:11:43.785Z,33.75
2022-12-19T08:12:44.349Z,33.75
2022-12-19T08:13:58.306Z,33.75
2022-12-19T08:14:45.525Z,33.75
2022-12-19T08:15:45.501Z,33.75
2022-12-19T08:17:30.831Z,33.75
2022-12-19T08:18:18.692Z,39.38
2022-12-19T08:19:22.398Z,39.38
2022-12-19T08:20:21.236Z,39.38
2022-12-19T08:21:21.629Z,45
2022-12-19T08:22:22.393Z,45
2022-12-19T08:23:22.325Z,45
2022-12-19T08:24:23.991Z,50.63
2022-12-19T08:25:24.188Z,50.63
2022-12-19T08:26:24.247Z,56.25
2022-12-19T08:27:24.540Z,56.25
2022-12-19T08:28:24.399Z,61.88
2022-12-19T08:29:25.657Z,61.88
2022-12-19T08:30:25.620Z,61.88
2022-12-19T08:31:27.768Z,61.88
2022-12-19T08:32:32.790Z,67.5
2022-12-19T08:33:27.999Z,67.5
2022-12-19T08:34:28.935Z,73.13
2022-12-19T08:35:28.586Z,78.75
2022-12-19T08:36:30.256Z,78.75
2022-12-19T08:37:30.869Z,84.38
2022-12-19T08:38:31.338Z,90
2022-12-19T08:39:31.876Z,90
2022-12-19T08:40:32.451Z,95.63
2022-12-19T08:41:34.141Z,95.63
2022-12-19T08:42:33.792Z,101.25
2022-12-19T08:43:33.840Z,101.25
2022-12-19T08:44:34.069Z,106.88
2022-12-19T08:45:34.608Z,106.88
2022-12-19T08:46:35.317Z,106.88
2022-12-19T08:47:35.973Z,106.88
2022-12-19T08:48:35.258Z,106.88
2022-12-19T08:49:36.493Z,101.25
2022-12-19T08:50:36.861Z,101.25
2022-12-19T08:51:38.359Z,95.63
2022-12-19T08:52:37.416Z,95.63
2022-12-19T08:53:43.343Z,90
2022-12-19T08:54:39.705Z,84.38
2022-12-19T08:55:42.081Z,84.38
2022-12-19T08:56:42.238Z,78.75
2022-12-19T08:57:40.253Z,73.13
2022-12-19T08:58:40.831Z,73.13
2022-12-19T08:59:51.461Z,67.5
2022-12-19T09:00:45.408Z,61.88
2022-12-19T09:01:43.128Z,61.88
2022-12-19T09:02:45.228Z,61.88
2022-12-19T09:06:23.785Z,61.88
2022-12-19T09:06:41.551Z,61.88
2022-12-19T09:07:44.353Z,61.88
2022-12-19T09:08:42.306Z,61.88
2022-12-19T09:09:43.058Z,61.88
2022-12-19T09:10:44.075Z,61.88
2022-12-19T09:11:59.169Z,61.88
2022-12-19T09:12:45.418Z,61.88
2022-12-19T09:13:45.669Z,61.88
2022-12-19T09:14:45.920Z,61.88
2022-12-19T09:15:48.889Z,61.88
2022-12-19T09:16:46.854Z,56.25
2022-12-19T09:17:50.715Z,56.25
2022-12-19T09:18:53.661Z,56.25
2022-12-19T09:19:53.355Z,56.25
2022-12-19T09:20:49.857Z,56.25
2022-12-19T09:21:50.300Z,56.25
2022-12-19T09:22:50.939Z,56.25
2022-12-19T09:23:52.389Z,56.25
2022-12-19T09:24:52.040Z,56.25
2022-12-19T09:25:52.260Z,61.88
2022-12-19T09:26:53.479Z,56.25
2022-12-19T09:28:48.285Z,61.88
2022-12-19T09:29:06.736Z,61.88
2022-12-19T09:30:05.740Z,61.88
2022-12-19T09:31:06.573Z,61.88
2022-12-19T09:32:12.519Z,61.88
2022-12-19T09:33:07.839Z,67.5
2022-12-19T09:34:08.067Z,67.5
2022-12-19T09:35:09.301Z,67.5
2022-12-19T09:36:15.387Z,67.5
2022-12-19T09:37:16.505Z,73.13
2022-12-19T09:38:16.766Z,73.13
2022-12-19T09:39:12.676Z,73.13
2022-12-19T09:40:16.002Z,78.75
2022-12-19T09:41:13.464Z,78.75
2022-12-19T09:42:13.729Z,84.38
2022-12-19T09:43:13.664Z,84.38
2022-12-19T09:44:18.255Z,84.38
2022-12-19T09:45:36.487Z,90
2022-12-19T09:46:17.005Z,90
2022-12-19T09:47:17.051Z,90
2022-12-19T09:48:30.070Z,95.63
2022-12-19T09:49:19.568Z,95.63
2022-12-19T09:50:19.807Z,95.63
2022-12-19T09:51:27.502Z,101.25
2022-12-19T09:52:19.855Z,106.88
2022-12-19T09:53:22.766Z,106.88
2022-12-19T09:54:21.327Z,112.5
2022-12-19T09:55:28.032Z,112.5
2022-12-19T09:56:22.256Z,112.5
2022-12-19T09:57:22.465Z,118.13
2022-12-19T09:58:22.552Z,123.75
2022-12-19T09:59:28.506Z,129.38
2022-12-19T10:00:24.143Z,140.63
2022-12-19T10:01:25.181Z,146.25
2022-12-19T10:02:30.025Z,157.5
2022-12-19T10:03:26.569Z,163.13
2022-12-19T10:04:28.036Z,180
2022-12-19T10:08:31.589Z,286.88
2022-12-19T10:13:18.609Z,405
2022-12-19T10:14:08.902Z,365.63
2022-12-19T10:15:09.720Z,343.13
2022-12-19T10:16:17.454Z,258.75
2022-12-19T10:17:40.035Z,208.13
2022-12-19T10:18:11.004Z,241.88
2022-12-19T10:19:13.940Z,230.63
2022-12-19T10:20:12.460Z,258.75
2022-12-19T10:21:13.413Z,219.38
2022-12-19T10:22:34.508Z,168.75
2022-12-19T10:23:15.087Z,163.13
2022-12-19T10:24:15.507Z,157.5
2022-12-19T10:25:25.360Z,157.5
2022-12-19T10:26:16.733Z,151.88
2022-12-19T10:27:16.721Z,146.25
2022-12-19T10:28:17.977Z,146.25
2022-12-19T10:29:24.554Z,146.25
2022-12-19T10:30:20.078Z,146.25
2022-12-19T10:31:33.772Z,151.88
2022-12-19T10:32:21.342Z,157.5
2022-12-19T10:33:31.869Z,174.38
2022-12-19T10:34:22.780Z,174.38
2022-12-19T10:35:22.538Z,180
2022-12-19T10:36:36.449Z,196.88
2022-12-19T10:38:00.259Z,208.13
2022-12-19T10:38:23.584Z,219.38
2022-12-19T10:39:24.102Z,247.5
2022-12-19T10:40:39.832Z,275.63
2022-12-19T10:41:24.869Z,298.13
2022-12-19T10:42:24.822Z,348.75
2022-12-19T10:43:49.797Z,450
2022-12-19T10:44:38.497Z,500.63
2022-12-19T10:45:39.296Z,511.88
2022-12-19T10:46:40.602Z,506.25
2022-12-19T10:47:40.094Z,466.88
2022-12-19T10:48:47.147Z,337.5
2022-12-19T10:49:42.649Z,315
2022-12-19T10:50:42.663Z,343.13
2022-12-19T10:51:43.132Z,337.5
2022-12-19T10:52:45.177Z,427.5
2022-12-19T10:53:44.469Z,472.5
2022-12-19T10:54:50.721Z,483.75
2022-12-19T10:55:46.036Z,472.5
2022-12-19T10:56:53.864Z,354.38
2022-12-19T10:57:51.001Z,388.13
2022-12-19T10:58:47.595Z,669.38
2022-12-19T10:59:47.969Z,641.25
2022-12-19T11:00:49.996Z,466.88
2022-12-19T11:01:51.684Z,511.88
2022-12-19T11:02:51.324Z,731.25
2022-12-19T11:03:52.215Z,663.75
2022-12-19T11:04:52.960Z,686.25
2022-12-19T11:06:02.865Z,776.25
2022-12-19T11:06:53.259Z,495
2022-12-19T11:07:54.236Z,495
2022-12-19T11:08:55.287Z,444.38
2022-12-19T11:32:51.512Z,180
2022-12-19T11:33:40.757Z,180
2022-12-19T11:34:41.777Z,180
2022-12-19T11:35:53.457Z,180
2022-12-19T11:36:43.697Z,191.25
2022-12-19T11:37:44.936Z,196.88
2022-12-19T11:38:45.200Z,191.25
2022-12-19T11:39:45.427Z,191.25
2022-12-19T11:40:54.157Z,180
2022-12-19T11:41:46.082Z,180
2022-12-19T11:42:47.579Z,180
2022-12-19T11:44:04.924Z,180
2022-12-19T11:45:05.900Z,180
2022-12-19T11:46:06.552Z,185.63
2022-12-19T11:47:10.483Z,174.38
2022-12-19T11:48:07.951Z,180
2022-12-19T11:49:08.456Z,174.38
2022-12-19T11:50:09.021Z,174.38
2022-12-19T11:51:11.323Z,180
2022-12-19T11:52:23.679Z,174.38
2022-12-19T11:53:30.518Z,163.13
2022-12-19T11:54:20.540Z,157.5
2022-12-19T11:55:22.038Z,151.88
2022-12-19T11:56:32.603Z,151.88
2022-12-19T11:57:22.587Z,151.88
2022-12-19T11:58:22.554Z,151.88
2022-12-19T11:59:23.764Z,146.25
2022-12-19T12:00:24.592Z,140.63
2022-12-19T12:01:25.199Z,140.63
2022-12-19T12:02:25.665Z,140.63
2022-12-19T12:03:26.295Z,140.63
2022-12-19T12:04:26.184Z,140.63
2022-12-19T12:05:30.553Z,140.63
2022-12-19T12:06:31.495Z,135
2022-12-19T12:38:41.866Z,174.38
2022-12-19T12:39:50.478Z,163.13
2022-12-19T12:40:43.867Z,163.13
2022-12-19T12:41:46.567Z,157.5
2022-12-19T12:42:45.530Z,151.88
2022-12-19T12:43:46.227Z,151.88
2022-12-19T12:44:57.106Z,151.88
2022-12-19T12:45:48.371Z,146.25
2022-12-19T12:46:48.651Z,146.25
2022-12-19T12:47:48.669Z,151.88
2022-12-19T12:48:49.038Z,146.25
2022-12-19T12:49:51.314Z,146.25
2022-12-19T12:50:56.708Z,146.25
2022-12-19T12:51:51.242Z,146.25
2022-12-19T12:52:51.467Z,146.25
2022-12-19T12:53:52.091Z,146.25
2022-12-19T12:54:52.217Z,146.25
2022-12-19T12:55:52.164Z,140.63
2022-12-19T12:56:55.416Z,135
2022-12-19T12:57:53.476Z,135
2022-12-19T12:58:59.300Z,135
2022-12-19T12:59:54.411Z,135
2022-12-19T13:00:55.693Z,140.63
2022-12-19T13:01:57.771Z,146.25
2022-12-19T13:02:58.000Z,146.25
2022-12-19T13:03:57.740Z,146.25
2022-12-19T13:05:04.859Z,140.63
2022-12-19T13:05:59.175Z,140.63
2022-12-19T13:06:58.397Z,140.63
2022-12-19T13:07:59.385Z,140.63
2022-12-19T13:09:01.438Z,135
2022-12-19T13:10:01.231Z,135
2022-12-19T13:11:01.753Z,140.63
2022-12-19T13:12:02.777Z,135
2022-12-19T13:13:06.918Z,129.38
2022-12-19T13:14:04.475Z,129.38
2022-12-19T13:15:04.986Z,123.75
2022-12-19T13:16:05.217Z,123.75
2022-12-19T13:17:06.006Z,123.75
2022-12-19T13:18:06.321Z,123.75
2022-12-19T13:19:11.509Z,123.75
2022-12-19T13:20:06.789Z,123.75
2022-12-19T13:21:08.007Z,123.75
2022-12-19T13:22:08.245Z,123.75
2022-12-19T13:23:09.250Z,118.13
2022-12-19T13:24:09.411Z,112.5
2022-12-19T13:25:10.077Z,112.5
2022-12-19T13:26:14.968Z,106.88
2022-12-19T13:27:11.939Z,106.88
2022-12-19T13:28:11.930Z,101.25
2022-12-19T13:29:13.438Z,101.25
2022-12-19T13:30:14.008Z,101.25
2022-12-19T13:31:38.877Z,95.63
2022-12-19T13:32:15.310Z,101.25
2022-12-19T13:33:15.810Z,101.25
2022-12-19T13:34:16.419Z,101.25
2022-12-19T13:40:34.294Z,95.63
2022-12-19T13:41:19.370Z,95.63
2022-12-19T13:42:19.759Z,95.63
2022-12-19T13:43:27.754Z,95.63
2022-12-19T13:44:21.314Z,95.63
2022-12-19T13:45:21.276Z,90
2022-12-19T13:46:22.857Z,90
2022-12-19T13:47:29.204Z,90
2022-12-19T13:48:24.988Z,84.38
2022-12-19T13:49:23.408Z,84.38
2022-12-19T13:50:24.674Z,84.38
2022-12-19T13:51:25.306Z,84.38
2022-12-19T13:52:26.152Z,78.75
2022-12-19T13:53:26.536Z,78.75
2022-12-19T13:54:27.755Z,78.75
2022-12-19T13:55:28.063Z,73.13
2022-12-19T13:56:29.366Z,73.13
2022-12-19T13:57:29.863Z,73.13
2022-12-19T13:58:35.068Z,67.5
2022-12-19T13:59:30.316Z,67.5
2022-12-19T14:00:31.259Z,67.5
2022-12-19T14:01:37.685Z,61.88
2022-12-19T14:02:34.965Z,61.88
2022-12-19T14:03:34.691Z,61.88
2022-12-19T14:04:34.066Z,56.25
2022-12-19T14:06:30.232Z,56.25
2022-12-19T14:06:47.487Z,56.25
2022-12-19T14:07:52.894Z,56.25
2022-12-19T14:09:41.489Z,50.63
2022-12-19T14:14:28.591Z,50.63
2022-12-19T14:14:46.204Z,50.63
2022-12-19T14:15:51.918Z,50.63
2022-12-19T14:17:02.465Z,50.63
2022-12-19T14:18:47.470Z,45
2022-12-19T14:19:04.730Z,45
2022-12-19T14:22:30.844Z,45
2022-12-19T14:22:48.073Z,39.38
2022-12-19T14:24:00.160Z,39.38
2022-12-19T14:24:49.136Z,39.38
2022-12-19T14:28:59.681Z,33.75
2022-12-19T14:30:50.163Z,33.75
2022-12-19T14:34:47.017Z,28.13
2022-12-19T14:36:37.120Z,28.13
2022-12-19T14:39:35.227Z,22.5
2022-12-19T14:39:52.805Z,22.5
2022-12-19T14:41:25.463Z,22.5
2022-12-19T14:41:58.929Z,22.5
2022-12-19T14:57:15.925Z,11.25
2022-12-19T14:59:12.710Z,11.25
2022-12-19T15:00:00.830Z,11.25
2022-12-19T15:01:35.399Z,5.63
2022-12-19T15:02:01.787Z,5.63
2022-12-19T15:03:03.524Z,5.63
2022-12-19T15:05:09.095Z,5.63
2022-12-19T15:07:24.010Z,5.63
2022-12-19T15:15:14.194Z,0
2022-12-19T15:16:03.125Z,0
2022-12-19T15:17:03.393Z,0
2022-12-19T15:18:04.054Z,0
2022-12-19T15:19:05.286Z,0
2022-12-19T15:20:05.364Z,0
2022-12-19T15:21:06.318Z,0
2022-12-19T15:22:06.289Z,0
2022-12-19T15:23:07.864Z,0
2022-12-19T15:24:08.093Z,0
2022-12-19T15:25:13.516Z,0
2022-12-19T15:26:26.867Z,0
2022-12-19T15:27:26.859Z,0
2022-12-19T15:28:27.081Z,0
2022-12-19T15:29:33.563Z,0
2022-12-19T15:30:28.833Z,0
2022-12-19T15:31:29.496Z,0
2022-12-19T15:32:29.719Z,0
2022-12-19T15:33:30.956Z,0
2022-12-19T15:35:02.799Z,0
2022-12-19T15:35:31.464Z,0
2022-12-19T15:36:32.588Z,0
2022-12-19T15:37:32.981Z,0
2022-12-19T15:38:33.240Z,0
2022-12-19T15:39:34.188Z,0
2022-12-19T15:40:34.123Z,0
2022-12-19T15:41:34.898Z,0
2022-12-19T15:42:36.289Z,0
2022-12-19T15:44:18.992Z,0
2022-12-19T15:45:37.587Z,0
2022-12-19T15:46:42.931Z,0
2022-12-19T15:47:38.734Z,0
2022-12-19T15:48:39.384Z,0
2022-12-19T15:49:40.373Z,0
2022-12-19T15:50:41.039Z,0